sensor_id;sensor_type;location;lat;lon;timestamp;P1;durP1;ratioP1;P2;durP2;ratioP2
23416;SDS011;11881;42.432;25.632;2024-02-28T00:00:44;17.33;;;7.50;;
23416;SDS011;11881;42.432;25.632;2024-02-28T00:03:10;14.60;;;6.73;;
23416;SDS011;11881;42.432;25.632;2024-02-28T00:05:35;19.07;;;7.60;;
23416;SDS011;11881;42.432;25.632;2024-02-28T00:08:01;19.87;;;7.47;;
23416;SDS011;11881;42.432;25.632;2024-02-28T00:10:26;18.73;;;7.30;;
23416;SDS011;11881;42.432;25.632;2024-02-28T00:12:52;19.43;;;7.77;;
23416;SDS011;11881;42.432;25.632;2024-02-28T00:15:17;17.57;;;7.17;;
23416;SDS011;11881;42.432;25.632;2024-02-28T00:17:43;17.90;;;8.13;;
23416;SDS011;11881;42.432;25.632;2024-02-28T00:20:09;17.87;;;7.47;;
23416;SDS011;11881;42.432;25.632;2024-02-28T00:22:37;23.40;;;8.10;;
23416;SDS011;11881;42.432;25.632;2024-02-28T00:25:03;21.40;;;8.73;;
23416;SDS011;11881;42.432;25.632;2024-02-28T00:27:31;20.40;;;8.20;;
23416;SDS011;11881;42.432;25.632;2024-02-28T00:29:59;17.40;;;8.30;;
23416;SDS011;11881;42.432;25.632;2024-02-28T00:32:25;21.23;;;8.10;;
23416;SDS011;11881;42.432;25.632;2024-02-28T00:34:50;17.87;;;7.40;;
23416;SDS011;11881;42.432;25.632;2024-02-28T00:37:16;19.10;;;8.17;;
23416;SDS011;11881;42.432;25.632;2024-02-28T00:39:43;20.27;;;7.67;;
23416;SDS011;11881;42.432;25.632;2024-02-28T00:42:10;20.43;;;7.93;;
23416;SDS011;11881;42.432;25.632;2024-02-28T00:44:35;16.83;;;7.63;;
23416;SDS011;11881;42.432;25.632;2024-02-28T00:47:01;20.60;;;8.00;;
23416;SDS011;11881;42.432;25.632;2024-02-28T00:49:27;25.13;;;9.10;;
23416;SDS011;11881;42.432;25.632;2024-02-28T00:51:52;16.37;;;7.87;;
23416;SDS011;11881;42.432;25.632;2024-02-28T00:54:18;15.87;;;7.87;;
23416;SDS011;11881;42.432;25.632;2024-02-28T00:56:43;19.50;;;8.13;;
23416;SDS011;11881;42.432;25.632;2024-02-28T00:59:09;17.77;;;8.67;;
23416;SDS011;11881;42.432;25.632;2024-02-28T01:01:37;17.57;;;8.13;;
23416;SDS011;11881;42.432;25.632;2024-02-28T01:04:03;17.67;;;8.00;;
23416;SDS011;11881;42.432;25.632;2024-02-28T01:06:28;20.23;;;8.70;;
23416;SDS011;11881;42.432;25.632;2024-02-28T01:08:54;18.90;;;8.63;;
23416;SDS011;11881;42.432;25.632;2024-02-28T01:11:20;15.80;;;8.27;;
23416;SDS011;11881;42.432;25.632;2024-02-28T01:13:45;20.70;;;8.50;;
23416;SDS011;11881;42.432;25.632;2024-02-28T01:16:11;16.97;;;7.23;;
23416;SDS011;11881;42.432;25.632;2024-02-28T01:18:36;16.03;;;7.10;;
23416;SDS011;11881;42.432;25.632;2024-02-28T01:21:02;15.13;;;7.13;;
23416;SDS011;11881;42.432;25.632;2024-02-28T01:23:28;17.17;;;8.00;;
23416;SDS011;11881;42.432;25.632;2024-02-28T01:25:53;21.30;;;7.70;;
23416;SDS011;11881;42.432;25.632;2024-02-28T01:28:19;13.93;;;6.93;;
23416;SDS011;11881;42.432;25.632;2024-02-28T01:30:44;18.70;;;7.07;;
23416;SDS011;11881;42.432;25.632;2024-02-28T01:33:10;15.20;;;7.80;;
23416;SDS011;11881;42.432;25.632;2024-02-28T01:35:37;19.30;;;7.70;;
23416;SDS011;11881;42.432;25.632;2024-02-28T01:38:03;16.57;;;7.40;;
23416;SDS011;11881;42.432;25.632;2024-02-28T01:40:28;17.43;;;7.80;;
23416;SDS011;11881;42.432;25.632;2024-02-28T01:42:54;22.77;;;7.87;;
23416;SDS011;11881;42.432;25.632;2024-02-28T01:45:19;20.30;;;7.40;;
23416;SDS011;11881;42.432;25.632;2024-02-28T01:47:45;21.87;;;7.77;;
23416;SDS011;11881;42.432;25.632;2024-02-28T01:50:11;19.80;;;7.60;;
23416;SDS011;11881;42.432;25.632;2024-02-28T01:52:37;18.03;;;6.93;;
23416;SDS011;11881;42.432;25.632;2024-02-28T01:55:04;16.97;;;6.97;;
23416;SDS011;11881;42.432;25.632;2024-02-28T01:57:31;20.47;;;6.50;;
23416;SDS011;11881;42.432;25.632;2024-02-28T01:59:57;20.93;;;6.93;;
23416;SDS011;11881;42.432;25.632;2024-02-28T02:02:23;12.57;;;6.33;;
23416;SDS011;11881;42.432;25.632;2024-02-28T02:04:49;14.03;;;6.40;;
23416;SDS011;11881;42.432;25.632;2024-02-28T02:07:18;12.73;;;5.93;;
23416;SDS011;11881;42.432;25.632;2024-02-28T02:09:44;17.07;;;5.87;;
23416;SDS011;11881;42.432;25.632;2024-02-28T02:12:10;15.77;;;5.90;;
23416;SDS011;11881;42.432;25.632;2024-02-28T02:14:36;11.43;;;6.17;;
23416;SDS011;11881;42.432;25.632;2024-02-28T02:17:01;17.57;;;6.43;;
23416;SDS011;11881;42.432;25.632;2024-02-28T02:19:27;15.77;;;5.93;;
23416;SDS011;11881;42.432;25.632;2024-02-28T02:21:53;15.83;;;6.20;;
23416;SDS011;11881;42.432;25.632;2024-02-28T02:24:22;17.80;;;6.37;;
23416;SDS011;11881;42.432;25.632;2024-02-28T02:26:47;19.03;;;6.57;;
23416;SDS011;11881;42.432;25.632;2024-02-28T02:29:16;14.67;;;6.47;;
23416;SDS011;11881;42.432;25.632;2024-02-28T02:31:41;17.23;;;6.60;;
23416;SDS011;11881;42.432;25.632;2024-02-28T02:34:07;17.20;;;6.67;;
23416;SDS011;11881;42.432;25.632;2024-02-28T02:36:32;22.23;;;6.63;;
23416;SDS011;11881;42.432;25.632;2024-02-28T02:38:58;17.77;;;6.87;;
23416;SDS011;11881;42.432;25.632;2024-02-28T02:41:23;17.40;;;7.20;;
23416;SDS011;11881;42.432;25.632;2024-02-28T02:43:49;18.70;;;6.33;;
23416;SDS011;11881;42.432;25.632;2024-02-28T02:46:14;20.47;;;7.47;;
23416;SDS011;11881;42.432;25.632;2024-02-28T02:48:40;18.77;;;7.03;;
23416;SDS011;11881;42.432;25.632;2024-02-28T02:51:05;19.23;;;7.10;;
23416;SDS011;11881;42.432;25.632;2024-02-28T02:53:31;16.93;;;6.57;;
23416;SDS011;11881;42.432;25.632;2024-02-28T02:55:56;16.33;;;6.77;;
23416;SDS011;11881;42.432;25.632;2024-02-28T02:58:22;20.00;;;7.33;;
23416;SDS011;11881;42.432;25.632;2024-02-28T03:00:47;16.37;;;6.87;;
23416;SDS011;11881;42.432;25.632;2024-02-28T03:03:13;19.87;;;7.30;;
23416;SDS011;11881;42.432;25.632;2024-02-28T03:05:38;16.93;;;6.63;;
23416;SDS011;11881;42.432;25.632;2024-02-28T03:08:04;15.47;;;6.63;;
23416;SDS011;11881;42.432;25.632;2024-02-28T03:10:29;16.77;;;6.83;;
23416;SDS011;11881;42.432;25.632;2024-02-28T03:12:55;22.73;;;6.20;;
23416;SDS011;11881;42.432;25.632;2024-02-28T03:15:20;22.00;;;7.07;;
23416;SDS011;11881;42.432;25.632;2024-02-28T03:17:46;15.20;;;6.33;;
23416;SDS011;11881;42.432;25.632;2024-02-28T03:20:11;13.83;;;5.93;;
23416;SDS011;11881;42.432;25.632;2024-02-28T03:22:39;20.80;;;7.03;;
23416;SDS011;11881;42.432;25.632;2024-02-28T03:25:05;20.43;;;6.67;;
23416;SDS011;11881;42.432;25.632;2024-02-28T03:27:31;17.83;;;6.17;;
23416;SDS011;11881;42.432;25.632;2024-02-28T03:29:57;15.03;;;7.10;;
23416;SDS011;11881;42.432;25.632;2024-02-28T03:32:22;15.47;;;6.00;;
23416;SDS011;11881;42.432;25.632;2024-02-28T03:34:48;17.17;;;6.70;;
23416;SDS011;11881;42.432;25.632;2024-02-28T03:37:14;13.80;;;6.33;;
23416;SDS011;11881;42.432;25.632;2024-02-28T03:39:39;15.17;;;6.80;;
23416;SDS011;11881;42.432;25.632;2024-02-28T03:42:05;17.77;;;7.60;;
23416;SDS011;11881;42.432;25.632;2024-02-28T03:44:30;17.27;;;7.27;;
23416;SDS011;11881;42.432;25.632;2024-02-28T03:46:56;21.00;;;7.60;;
23416;SDS011;11881;42.432;25.632;2024-02-28T03:49:21;23.73;;;8.03;;
23416;SDS011;11881;42.432;25.632;2024-02-28T03:51:47;17.57;;;7.23;;
23416;SDS011;11881;42.432;25.632;2024-02-28T03:54:12;22.50;;;7.77;;
23416;SDS011;11881;42.432;25.632;2024-02-28T03:56:38;17.60;;;7.43;;
23416;SDS011;11881;42.432;25.632;2024-02-28T03:59:03;22.00;;;8.83;;
23416;SDS011;11881;42.432;25.632;2024-02-28T04:01:29;25.67;;;8.70;;
23416;SDS011;11881;42.432;25.632;2024-02-28T04:03:55;23.53;;;8.60;;
23416;SDS011;11881;42.432;25.632;2024-02-28T04:06:21;19.43;;;8.73;;
23416;SDS011;11881;42.432;25.632;2024-02-28T04:08:46;17.00;;;8.00;;
23416;SDS011;11881;42.432;25.632;2024-02-28T04:11:12;21.40;;;8.47;;
23416;SDS011;11881;42.432;25.632;2024-02-28T04:13:38;17.57;;;8.03;;
23416;SDS011;11881;42.432;25.632;2024-02-28T04:16:03;16.00;;;8.20;;
23416;SDS011;11881;42.432;25.632;2024-02-28T04:18:29;24.10;;;8.17;;
23416;SDS011;11881;42.432;25.632;2024-02-28T04:20:55;18.00;;;7.47;;
23416;SDS011;11881;42.432;25.632;2024-02-28T04:23:21;23.20;;;8.70;;
23416;SDS011;11881;42.432;25.632;2024-02-28T04:25:46;23.37;;;8.20;;
23416;SDS011;11881;42.432;25.632;2024-02-28T04:28:12;19.77;;;8.47;;
23416;SDS011;11881;42.432;25.632;2024-02-28T04:30:37;20.93;;;8.80;;
23416;SDS011;11881;42.432;25.632;2024-02-28T04:33:03;25.07;;;9.47;;
23416;SDS011;11881;42.432;25.632;2024-02-28T04:35:29;26.17;;;9.23;;
23416;SDS011;11881;42.432;25.632;2024-02-28T04:37:54;19.73;;;9.03;;
23416;SDS011;11881;42.432;25.632;2024-02-28T04:40:19;21.13;;;8.40;;
23416;SDS011;11881;42.432;25.632;2024-02-28T04:42:45;24.10;;;9.13;;
23416;SDS011;11881;42.432;25.632;2024-02-28T04:45:11;22.20;;;8.70;;
23416;SDS011;11881;42.432;25.632;2024-02-28T04:47:36;22.50;;;8.40;;
23416;SDS011;11881;42.432;25.632;2024-02-28T04:50:03;28.93;;;10.17;;
23416;SDS011;11881;42.432;25.632;2024-02-28T04:52:32;25.57;;;9.00;;
23416;SDS011;11881;42.432;25.632;2024-02-28T04:54:58;19.00;;;8.60;;
23416;SDS011;11881;42.432;25.632;2024-02-28T04:57:24;24.73;;;9.20;;
23416;SDS011;11881;42.432;25.632;2024-02-28T04:59:50;20.43;;;9.47;;
23416;SDS011;11881;42.432;25.632;2024-02-28T05:02:15;22.40;;;10.63;;
23416;SDS011;11881;42.432;25.632;2024-02-28T05:04:42;29.07;;;9.73;;
23416;SDS011;11881;42.432;25.632;2024-02-28T05:07:07;26.77;;;10.27;;
23416;SDS011;11881;42.432;25.632;2024-02-28T05:09:33;27.40;;;10.60;;
23416;SDS011;11881;42.432;25.632;2024-02-28T05:11:59;23.17;;;10.90;;
23416;SDS011;11881;42.432;25.632;2024-02-28T05:14:24;19.97;;;11.67;;
23416;SDS011;11881;42.432;25.632;2024-02-28T05:16:50;23.87;;;11.43;;
23416;SDS011;11881;42.432;25.632;2024-02-28T05:19:16;20.77;;;9.80;;
23416;SDS011;11881;42.432;25.632;2024-02-28T05:21:44;20.57;;;9.17;;
23416;SDS011;11881;42.432;25.632;2024-02-28T05:24:10;17.90;;;9.23;;
23416;SDS011;11881;42.432;25.632;2024-02-28T05:26:37;20.37;;;9.03;;
23416;SDS011;11881;42.432;25.632;2024-02-28T05:29:03;20.83;;;9.73;;
23416;SDS011;11881;42.432;25.632;2024-02-28T05:31:30;21.43;;;9.10;;
23416;SDS011;11881;42.432;25.632;2024-02-28T05:33:57;22.77;;;9.37;;
23416;SDS011;11881;42.432;25.632;2024-02-28T05:36:23;25.50;;;10.17;;
23416;SDS011;11881;42.432;25.632;2024-02-28T05:38:50;21.80;;;9.93;;
23416;SDS011;11881;42.432;25.632;2024-02-28T05:41:16;22.60;;;8.77;;
23416;SDS011;11881;42.432;25.632;2024-02-28T05:43:43;24.23;;;10.00;;
23416;SDS011;11881;42.432;25.632;2024-02-28T05:46:09;24.43;;;9.10;;
23416;SDS011;11881;42.432;25.632;2024-02-28T05:48:35;28.80;;;9.80;;
23416;SDS011;11881;42.432;25.632;2024-02-28T05:51:01;28.03;;;9.67;;
23416;SDS011;11881;42.432;25.632;2024-02-28T05:53:27;27.03;;;10.60;;
23416;SDS011;11881;42.432;25.632;2024-02-28T05:55:53;19.33;;;9.80;;
23416;SDS011;11881;42.432;25.632;2024-02-28T05:58:22;25.73;;;11.07;;
23416;SDS011;11881;42.432;25.632;2024-02-28T06:00:48;28.70;;;11.17;;
23416;SDS011;11881;42.432;25.632;2024-02-28T06:03:14;24.97;;;10.87;;
23416;SDS011;11881;42.432;25.632;2024-02-28T06:05:40;28.20;;;12.43;;
23416;SDS011;11881;42.432;25.632;2024-02-28T06:08:06;27.33;;;11.00;;
23416;SDS011;11881;42.432;25.632;2024-02-28T06:10:32;24.83;;;11.07;;
23416;SDS011;11881;42.432;25.632;2024-02-28T06:12:58;29.50;;;12.00;;
23416;SDS011;11881;42.432;25.632;2024-02-28T06:15:24;27.73;;;11.07;;
23416;SDS011;11881;42.432;25.632;2024-02-28T06:17:49;28.60;;;12.87;;
23416;SDS011;11881;42.432;25.632;2024-02-28T06:20:14;30.63;;;12.77;;
23416;SDS011;11881;42.432;25.632;2024-02-28T06:22:40;31.20;;;12.57;;
23416;SDS011;11881;42.432;25.632;2024-02-28T06:25:06;29.03;;;12.50;;
23416;SDS011;11881;42.432;25.632;2024-02-28T06:27:38;28.93;;;12.57;;
23416;SDS011;11881;42.432;25.632;2024-02-28T06:30:05;27.93;;;11.90;;
23416;SDS011;11881;42.432;25.632;2024-02-28T06:32:32;30.53;;;11.87;;
23416;SDS011;11881;42.432;25.632;2024-02-28T06:34:57;24.20;;;10.33;;
23416;SDS011;11881;42.432;25.632;2024-02-28T06:37:23;20.17;;;9.67;;
23416;SDS011;11881;42.432;25.632;2024-02-28T06:39:48;25.03;;;9.53;;
23416;SDS011;11881;42.432;25.632;2024-02-28T06:42:14;20.33;;;8.83;;
23416;SDS011;11881;42.432;25.632;2024-02-28T06:44:39;22.10;;;7.33;;
23416;SDS011;11881;42.432;25.632;2024-02-28T06:47:05;22.70;;;7.83;;
23416;SDS011;11881;42.432;25.632;2024-02-28T06:49:30;19.93;;;7.53;;
23416;SDS011;11881;42.432;25.632;2024-02-28T06:51:56;21.80;;;7.07;;
23416;SDS011;11881;42.432;25.632;2024-02-28T06:54:24;20.30;;;8.30;;
23416;SDS011;11881;42.432;25.632;2024-02-28T06:56:50;16.27;;;6.67;;
23416;SDS011;11881;42.432;25.632;2024-02-28T06:59:15;23.40;;;7.37;;
23416;SDS011;11881;42.432;25.632;2024-02-28T07:01:41;24.90;;;8.33;;
23416;SDS011;11881;42.432;25.632;2024-02-28T07:04:06;29.73;;;13.00;;
23416;SDS011;11881;42.432;25.632;2024-02-28T07:06:32;31.33;;;14.30;;
23416;SDS011;11881;42.432;25.632;2024-02-28T07:08:57;34.03;;;15.77;;
23416;SDS011;11881;42.432;25.632;2024-02-28T07:11:23;39.67;;;16.83;;
23416;SDS011;11881;42.432;25.632;2024-02-28T07:13:48;37.97;;;17.33;;
23416;SDS011;11881;42.432;25.632;2024-02-28T07:16:14;42.20;;;16.40;;
23416;SDS011;11881;42.432;25.632;2024-02-28T07:18:39;36.87;;;15.87;;
23416;SDS011;11881;42.432;25.632;2024-02-28T07:21:05;35.37;;;15.90;;
23416;SDS011;11881;42.432;25.632;2024-02-28T07:23:32;39.30;;;16.90;;
23416;SDS011;11881;42.432;25.632;2024-02-28T07:25:57;39.47;;;15.83;;
23416;SDS011;11881;42.432;25.632;2024-02-28T07:28:23;36.60;;;16.10;;
23416;SDS011;11881;42.432;25.632;2024-02-28T07:30:48;37.43;;;18.13;;
23416;SDS011;11881;42.432;25.632;2024-02-28T07:33:14;47.07;;;18.10;;
23416;SDS011;11881;42.432;25.632;2024-02-28T07:35:45;46.17;;;20.37;;
23416;SDS011;11881;42.432;25.632;2024-02-28T07:38:15;49.37;;;21.87;;
23416;SDS011;11881;42.432;25.632;2024-02-28T07:40:42;51.30;;;22.03;;
23416;SDS011;11881;42.432;25.632;2024-02-28T07:43:08;51.30;;;25.43;;
23416;SDS011;11881;42.432;25.632;2024-02-28T07:45:33;60.77;;;26.20;;
23416;SDS011;11881;42.432;25.632;2024-02-28T07:47:59;62.40;;;25.20;;
23416;SDS011;11881;42.432;25.632;2024-02-28T07:50:26;61.17;;;23.43;;
23416;SDS011;11881;42.432;25.632;2024-02-28T07:52:53;39.47;;;21.00;;
23416;SDS011;11881;42.432;25.632;2024-02-28T07:55:20;58.77;;;24.70;;
23416;SDS011;11881;42.432;25.632;2024-02-28T07:57:47;56.77;;;23.60;;
23416;SDS011;11881;42.432;25.632;2024-02-28T08:00:15;47.83;;;18.43;;
23416;SDS011;11881;42.432;25.632;2024-02-28T08:02:43;51.80;;;21.43;;
23416;SDS011;11881;42.432;25.632;2024-02-28T08:05:08;50.10;;;18.23;;
23416;SDS011;11881;42.432;25.632;2024-02-28T08:07:33;44.93;;;19.33;;
23416;SDS011;11881;42.432;25.632;2024-02-28T08:09:59;51.13;;;22.37;;
23416;SDS011;11881;42.432;25.632;2024-02-28T08:12:24;49.33;;;21.93;;
23416;SDS011;11881;42.432;25.632;2024-02-28T08:14:50;71.83;;;27.20;;
23416;SDS011;11881;42.432;25.632;2024-02-28T08:17:15;74.07;;;27.93;;
23416;SDS011;11881;42.432;25.632;2024-02-28T08:19:41;65.33;;;26.40;;
23416;SDS011;11881;42.432;25.632;2024-02-28T08:22:07;54.37;;;24.53;;
23416;SDS011;11881;42.432;25.632;2024-02-28T08:24:32;50.27;;;22.87;;
23416;SDS011;11881;42.432;25.632;2024-02-28T08:26:58;44.13;;;19.63;;
23416;SDS011;11881;42.432;25.632;2024-02-28T08:29:23;34.80;;;18.80;;
23416;SDS011;11881;42.432;25.632;2024-02-28T08:31:49;41.20;;;18.63;;
23416;SDS011;11881;42.432;25.632;2024-02-28T08:34:14;47.20;;;19.77;;
23416;SDS011;11881;42.432;25.632;2024-02-28T08:36:40;47.20;;;22.53;;
23416;SDS011;11881;42.432;25.632;2024-02-28T08:39:06;40.90;;;17.27;;
23416;SDS011;11881;42.432;25.632;2024-02-28T08:41:34;31.77;;;15.07;;
23416;SDS011;11881;42.432;25.632;2024-02-28T08:44:00;39.53;;;14.97;;
23416;SDS011;11881;42.432;25.632;2024-02-28T08:46:25;38.77;;;16.33;;
23416;SDS011;11881;42.432;25.632;2024-02-28T08:48:51;41.20;;;15.10;;
23416;SDS011;11881;42.432;25.632;2024-02-28T08:51:16;36.67;;;17.03;;
23416;SDS011;11881;42.432;25.632;2024-02-28T08:53:42;44.70;;;17.83;;
23416;SDS011;11881;42.432;25.632;2024-02-28T08:56:07;41.87;;;17.30;;
23416;SDS011;11881;42.432;25.632;2024-02-28T08:58:33;37.83;;;16.33;;
23416;SDS011;11881;42.432;25.632;2024-02-28T09:00:58;33.17;;;15.63;;
23416;SDS011;11881;42.432;25.632;2024-02-28T09:03:24;40.73;;;18.13;;
23416;SDS011;11881;42.432;25.632;2024-02-28T09:05:49;33.73;;;16.77;;
23416;SDS011;11881;42.432;25.632;2024-02-28T09:08:15;42.87;;;21.27;;
23416;SDS011;11881;42.432;25.632;2024-02-28T09:10:40;41.10;;;19.73;;
23416;SDS011;11881;42.432;25.632;2024-02-28T09:13:06;46.47;;;20.10;;
23416;SDS011;11881;42.432;25.632;2024-02-28T09:15:32;39.23;;;19.97;;
23416;SDS011;11881;42.432;25.632;2024-02-28T09:17:59;43.93;;;19.00;;
23416;SDS011;11881;42.432;25.632;2024-02-28T09:20:25;37.47;;;18.03;;
23416;SDS011;11881;42.432;25.632;2024-02-28T09:22:51;41.13;;;19.23;;
23416;SDS011;11881;42.432;25.632;2024-02-28T09:25:16;44.87;;;19.37;;
23416;SDS011;11881;42.432;25.632;2024-02-28T09:27:43;38.03;;;19.50;;
23416;SDS011;11881;42.432;25.632;2024-02-28T09:30:09;41.33;;;19.10;;
23416;SDS011;11881;42.432;25.632;2024-02-28T09:32:35;38.10;;;16.27;;
23416;SDS011;11881;42.432;25.632;2024-02-28T09:35:02;36.27;;;15.43;;
23416;SDS011;11881;42.432;25.632;2024-02-28T09:37:29;30.80;;;15.43;;
23416;SDS011;11881;42.432;25.632;2024-02-28T09:39:54;30.30;;;14.87;;
23416;SDS011;11881;42.432;25.632;2024-02-28T09:42:20;30.47;;;15.73;;
23416;SDS011;11881;42.432;25.632;2024-02-28T09:44:45;37.70;;;16.87;;
23416;SDS011;11881;42.432;25.632;2024-02-28T09:47:11;38.70;;;17.70;;
23416;SDS011;11881;42.432;25.632;2024-02-28T09:49:38;36.53;;;18.13;;
23416;SDS011;11881;42.432;25.632;2024-02-28T09:52:05;34.83;;;16.50;;
23416;SDS011;11881;42.432;25.632;2024-02-28T09:54:31;36.07;;;15.60;;
23416;SDS011;11881;42.432;25.632;2024-02-28T09:56:56;39.47;;;15.90;;
23416;SDS011;11881;42.432;25.632;2024-02-28T09:59:23;28.57;;;14.97;;
23416;SDS011;11881;42.432;25.632;2024-02-28T10:01:53;30.93;;;14.17;;
23416;SDS011;11881;42.432;25.632;2024-02-28T10:04:26;34.97;;;14.07;;
23416;SDS011;11881;42.432;25.632;2024-02-28T10:06:55;44.67;;;16.37;;
23416;SDS011;11881;42.432;25.632;2024-02-28T10:09:21;35.80;;;14.67;;
23416;SDS011;11881;42.432;25.632;2024-02-28T10:11:46;32.23;;;15.27;;
23416;SDS011;11881;42.432;25.632;2024-02-28T10:14:16;35.80;;;15.93;;
23416;SDS011;11881;42.432;25.632;2024-02-28T10:16:43;33.47;;;15.80;;
23416;SDS011;11881;42.432;25.632;2024-02-28T10:19:09;23.80;;;13.03;;
23416;SDS011;11881;42.432;25.632;2024-02-28T10:21:34;31.17;;;14.17;;
23416;SDS011;11881;42.432;25.632;2024-02-28T10:24:00;21.67;;;13.20;;
23416;SDS011;11881;42.432;25.632;2024-02-28T10:26:25;33.23;;;16.17;;
23416;SDS011;11881;42.432;25.632;2024-02-28T10:28:51;26.97;;;14.60;;
23416;SDS011;11881;42.432;25.632;2024-02-28T10:31:17;31.17;;;15.73;;
23416;SDS011;11881;42.432;25.632;2024-02-28T10:33:42;30.03;;;14.80;;
23416;SDS011;11881;42.432;25.632;2024-02-28T10:36:08;32.63;;;14.27;;
23416;SDS011;11881;42.432;25.632;2024-02-28T10:38:34;34.67;;;17.70;;
23416;SDS011;11881;42.432;25.632;2024-02-28T10:41:01;31.27;;;17.43;;
23416;SDS011;11881;42.432;25.632;2024-02-28T10:43:30;34.80;;;17.27;;
23416;SDS011;11881;42.432;25.632;2024-02-28T10:45:59;33.33;;;17.50;;
23416;SDS011;11881;42.432;25.632;2024-02-28T10:48:25;28.53;;;15.57;;
23416;SDS011;11881;42.432;25.632;2024-02-28T10:50:51;38.00;;;14.27;;
23416;SDS011;11881;42.432;25.632;2024-02-28T10:53:21;28.30;;;13.90;;
23416;SDS011;11881;42.432;25.632;2024-02-28T10:55:50;32.13;;;14.27;;
23416;SDS011;11881;42.432;25.632;2024-02-28T10:58:21;33.60;;;14.83;;
23416;SDS011;11881;42.432;25.632;2024-02-28T11:00:49;27.73;;;14.73;;
23416;SDS011;11881;42.432;25.632;2024-02-28T11:03:16;27.70;;;14.53;;
23416;SDS011;11881;42.432;25.632;2024-02-28T11:05:43;27.00;;;14.37;;
23416;SDS011;11881;42.432;25.632;2024-02-28T11:08:20;31.20;;;14.60;;
23416;SDS011;11881;42.432;25.632;2024-02-28T11:10:47;26.73;;;14.90;;
23416;SDS011;11881;42.432;25.632;2024-02-28T11:13:23;27.40;;;13.33;;
23416;SDS011;11881;42.432;25.632;2024-02-28T11:15:49;27.07;;;13.03;;
23416;SDS011;11881;42.432;25.632;2024-02-28T11:18:15;28.67;;;13.17;;
23416;SDS011;11881;42.432;25.632;2024-02-28T11:20:41;27.47;;;13.23;;
23416;SDS011;11881;42.432;25.632;2024-02-28T11:23:09;29.23;;;13.43;;
23416;SDS011;11881;42.432;25.632;2024-02-28T11:25:35;31.90;;;12.90;;
23416;SDS011;11881;42.432;25.632;2024-02-28T11:28:01;25.93;;;11.77;;
23416;SDS011;11881;42.432;25.632;2024-02-28T11:30:26;27.30;;;12.80;;
23416;SDS011;11881;42.432;25.632;2024-02-28T11:32:52;28.07;;;12.97;;
23416;SDS011;11881;42.432;25.632;2024-02-28T11:35:24;27.53;;;12.73;;
23416;SDS011;11881;42.432;25.632;2024-02-28T11:37:50;26.37;;;12.13;;
23416;SDS011;11881;42.432;25.632;2024-02-28T11:40:18;27.30;;;13.00;;
23416;SDS011;11881;42.432;25.632;2024-02-28T11:42:44;20.33;;;11.50;;
23416;SDS011;11881;42.432;25.632;2024-02-28T11:45:10;26.07;;;11.60;;
23416;SDS011;11881;42.432;25.632;2024-02-28T11:47:39;22.67;;;11.07;;
23416;SDS011;11881;42.432;25.632;2024-02-28T11:50:05;21.47;;;11.90;;
23416;SDS011;11881;42.432;25.632;2024-02-28T11:52:31;26.87;;;11.17;;
23416;SDS011;11881;42.432;25.632;2024-02-28T11:54:58;28.67;;;9.97;;
23416;SDS011;11881;42.432;25.632;2024-02-28T11:57:25;26.03;;;11.60;;
23416;SDS011;11881;42.432;25.632;2024-02-28T11:59:51;26.60;;;10.97;;
23416;SDS011;11881;42.432;25.632;2024-02-28T12:02:17;31.63;;;11.13;;
23416;SDS011;11881;42.432;25.632;2024-02-28T12:04:43;25.47;;;11.43;;
23416;SDS011;11881;42.432;25.632;2024-02-28T12:07:09;23.60;;;10.93;;
23416;SDS011;11881;42.432;25.632;2024-02-28T12:09:35;23.20;;;10.53;;
23416;SDS011;11881;42.432;25.632;2024-02-28T12:12:01;24.73;;;10.73;;
23416;SDS011;11881;42.432;25.632;2024-02-28T12:14:31;20.50;;;10.57;;
23416;SDS011;11881;42.432;25.632;2024-02-28T12:16:58;24.17;;;10.50;;
23416;SDS011;11881;42.432;25.632;2024-02-28T12:19:23;22.40;;;10.50;;
23416;SDS011;11881;42.432;25.632;2024-02-28T12:21:49;23.47;;;11.13;;
23416;SDS011;11881;42.432;25.632;2024-02-28T12:24:15;23.60;;;10.60;;
23416;SDS011;11881;42.432;25.632;2024-02-28T12:26:40;21.07;;;10.60;;
23416;SDS011;11881;42.432;25.632;2024-02-28T12:29:06;24.83;;;10.80;;
23416;SDS011;11881;42.432;25.632;2024-02-28T12:31:32;21.73;;;9.60;;
23416;SDS011;11881;42.432;25.632;2024-02-28T12:33:58;23.67;;;9.23;;
23416;SDS011;11881;42.432;25.632;2024-02-28T12:36:24;17.90;;;9.17;;
23416;SDS011;11881;42.432;25.632;2024-02-28T12:38:50;22.23;;;9.80;;
23416;SDS011;11881;42.432;25.632;2024-02-28T12:41:16;19.07;;;8.73;;
23416;SDS011;11881;42.432;25.632;2024-02-28T12:43:42;22.53;;;8.80;;
23416;SDS011;11881;42.432;25.632;2024-02-28T12:46:08;21.13;;;8.83;;
23416;SDS011;11881;42.432;25.632;2024-02-28T12:48:36;23.77;;;8.77;;
23416;SDS011;11881;42.432;25.632;2024-02-28T12:51:03;23.77;;;8.70;;
23416;SDS011;11881;42.432;25.632;2024-02-28T12:53:30;19.10;;;9.17;;
23416;SDS011;11881;42.432;25.632;2024-02-28T12:55:55;18.67;;;8.10;;
23416;SDS011;11881;42.432;25.632;2024-02-28T12:58:21;17.73;;;7.93;;
23416;SDS011;11881;42.432;25.632;2024-02-28T13:00:48;17.27;;;7.63;;
23416;SDS011;11881;42.432;25.632;2024-02-28T13:03:14;18.83;;;7.73;;
23416;SDS011;11881;42.432;25.632;2024-02-28T13:05:41;17.17;;;7.23;;
23416;SDS011;11881;42.432;25.632;2024-02-28T13:08:07;23.73;;;7.70;;
23416;SDS011;11881;42.432;25.632;2024-02-28T13:10:32;21.83;;;8.30;;
23416;SDS011;11881;42.432;25.632;2024-02-28T13:13:01;16.67;;;8.13;;
23416;SDS011;11881;42.432;25.632;2024-02-28T13:15:29;22.73;;;7.93;;
23416;SDS011;11881;42.432;25.632;2024-02-28T13:17:54;19.00;;;8.40;;
23416;SDS011;11881;42.432;25.632;2024-02-28T13:20:20;19.17;;;7.83;;
23416;SDS011;11881;42.432;25.632;2024-02-28T13:22:45;21.77;;;8.10;;
23416;SDS011;11881;42.432;25.632;2024-02-28T13:25:12;15.50;;;8.00;;
23416;SDS011;11881;42.432;25.632;2024-02-28T13:27:39;15.03;;;7.60;;
23416;SDS011;11881;42.432;25.632;2024-02-28T13:30:05;13.40;;;6.80;;
23416;SDS011;11881;42.432;25.632;2024-02-28T13:32:31;17.73;;;7.73;;
23416;SDS011;11881;42.432;25.632;2024-02-28T13:34:57;14.20;;;7.07;;
23416;SDS011;11881;42.432;25.632;2024-02-28T13:37:22;20.97;;;7.43;;
23416;SDS011;11881;42.432;25.632;2024-02-28T13:39:48;21.93;;;9.03;;
23416;SDS011;11881;42.432;25.632;2024-02-28T13:42:17;24.50;;;8.43;;
23416;SDS011;11881;42.432;25.632;2024-02-28T13:44:45;20.07;;;8.00;;
23416;SDS011;11881;42.432;25.632;2024-02-28T13:47:11;14.53;;;7.43;;
23416;SDS011;11881;42.432;25.632;2024-02-28T13:49:38;15.90;;;7.77;;
23416;SDS011;11881;42.432;25.632;2024-02-28T13:52:04;23.07;;;9.00;;
23416;SDS011;11881;42.432;25.632;2024-02-28T13:54:30;18.90;;;9.20;;
23416;SDS011;11881;42.432;25.632;2024-02-28T13:56:56;20.60;;;7.80;;
23416;SDS011;11881;42.432;25.632;2024-02-28T13:59:21;16.87;;;7.43;;
23416;SDS011;11881;42.432;25.632;2024-02-28T14:01:47;17.60;;;8.20;;
23416;SDS011;11881;42.432;25.632;2024-02-28T14:04:13;16.30;;;7.43;;
23416;SDS011;11881;42.432;25.632;2024-02-28T14:06:38;16.93;;;7.03;;
23416;SDS011;11881;42.432;25.632;2024-02-28T14:09:04;17.23;;;8.17;;